Latest Coastal Weather Observations for Lake Macquarie - Cooranbong

IDN60701

Issued at 3:01 pm EST Sunday 21 July 2019 (issued every 10 minutes, with the page automatically refreshed every 10 minutes)

About coastal observations | Map of coastal stations | Coastal observations for NSW | Marine services | Other Formats
Station Details ID: 061412 Name: LAKE MACQUARIE AWS Lat: -33.09 Lon: 151.46 Height: 6.0 m
Data from the previous 72 hours. | See also: Recent months at Lake Macquarie - Cooranbong
Date/Time
EST
Wind Sea
Height
m
Swell Vis
km
Cloud Weather Temp
°C
Press
hPa
Rain since
9am
mm
Dir  Spd
kts
Gust
kts
Height
m
Period
s
Dir
21/03:00pm NNW 5 8 - - - - - - - 22.7 1014.5 0.0
21/02:30pm NNW 3 6 - - - - - - - 23.0 1014.6 0.0
21/02:00pm NW 5 11 - - - - - - - 22.5 1014.6 0.0
21/01:30pm NNW 3 6 - - - - - - - 22.2 1014.8 0.0
21/01:00pm NNW 4 8 - - - - - - - 22.1 1015.0 0.0
21/12:30pm NNW 5 9 - - - - - - - 22.1 1015.4 0.0
21/12:00pm NNW 10 17 - - - - - - - 21.1 1015.8 0.0
21/11:30am NNW 9 17 - - - - - - - 21.0 1016.4 0.0
21/11:00am NNW 6 12 - - - - - - - 20.8 1017.1 0.0
21/10:30am E 2 5 - - - - - - - 17.9 1017.7 0.0
21/10:00am ESE 2 4 - - - - - - - 15.4 1018.0 0.0
21/09:30am SE 1 2 - - - - - - - 12.0 1018.4 0.0
21/09:00am CALM 0 0 - - - - - - - 8.5 1018.7 0.0
21/08:30am CALM 0 0 - - - - - - - 5.3 1018.7 0.0
21/08:00am CALM 0 0 - - - - - - - 2.1 1018.6 0.0
21/07:30am CALM 0 0 - - - - - - - 0.4 1018.7 0.0
21/07:00am CALM 0 0 - - - - - - - 0.4 1018.5 0.0
21/06:30am CALM 0 0 - - - - - - - 0.5 1018.3 0.0
21/06:00am CALM 0 0 - - - - - - - 0.6 1018.3 0.0
21/05:30am CALM 0 0 - - - - - - - 0.5 1018.1 0.0
21/05:00am CALM 0 0 - - - - - - - 0.8 1018.0 0.0
21/04:30am CALM 0 0 - - - - - - - 0.8 1017.8 0.0
21/04:00am CALM 0 0 - - - - - - - 1.2 1017.9 0.0
21/03:30am CALM 0 0 - - - - - - - 1.3 1018.0 0.0
21/03:00am CALM 0 0 - - - - - - - 1.5 1018.3 0.0
21/02:30am CALM 0 0 - - - - - - - 1.8 1018.8 0.0
21/02:00am CALM 0 0 - - - - - - - 1.9 1019.0 0.0
21/01:30am CALM 0 0 - - - - - - - 2.1 1019.2 0.0
21/01:00am CALM 0 0 - - - - - - - 2.4 1019.4 0.0
21/12:30am CALM 0 0 - - - - - - - 2.7 1019.6 0.0
21/12:00am CALM 0 0 - - - - - - - 3.2 1019.9 0.0
 
Date/Time
EST
Wind Sea
Height
m
Swell Vis
km
Cloud Weather Temp
°C
Press
hPa
Rain since
9am
mm
Dir  Spd
kts
Gust
kts
Height
m
Period
s
Dir
20/11:30pm CALM 0 0 - - - - - - - 3.3 1020.0 0.0
20/11:00pm CALM 0 0 - - - - - - - 3.9 1020.1 0.0
20/10:30pm CALM 0 0 - - - - - - - 3.9 1020.2 0.0
20/10:00pm CALM 0 0 - - - - - - - 4.6 1020.4 0.0
20/09:30pm CALM 0 0 - - - - - - - 5.2 1020.6 0.0
20/09:00pm CALM 0 0 - - - - - - - 5.4 1020.7 0.0
20/08:30pm CALM 0 0 - - - - - - - 6.1 1020.9 0.0
20/08:00pm CALM 0 0 - - - - - - - 6.6 1020.9 0.0
20/07:30pm CALM 0 0 - - - - - - - 7.3 1020.8 0.0
20/07:00pm CALM 0 0 - - - - - - - 8.0 1020.8 0.0
20/06:30pm CALM 0 0 - - - - - - - 8.7 1020.6 0.0
20/06:00pm CALM 0 0 - - - - - - - 10.3 1020.3 0.0
20/05:30pm CALM 0 0 - - - - - - - 12.3 1020.2 0.0
20/05:00pm CALM 0 1 - - - - - - - 14.4 1019.9 0.0
20/04:30pm NE 2 3 - - - - - - - 17.0 1019.9 0.0
20/04:00pm ENE 2 4 - - - - - - - 18.7 1019.9 0.0
20/03:30pm NNE 4 7 - - - - - - - 19.2 1019.9 0.0
20/03:00pm NNE 5 6 - - - - - - - 19.4 1020.0 0.0
20/02:30pm NNE 4 6 - - - - - - - 19.3 1020.3 0.0
20/02:00pm NNE 5 8 - - - - - - - 19.1 1020.5 0.0
20/01:30pm NE 4 7 - - - - - - - 19.0 1020.8 0.0
20/01:00pm NNE 6 8 - - - - - - - 18.3 1021.2 0.0
20/12:30pm N 8 11 - - - - - - - 17.8 1021.7 0.0
20/12:00pm NNE 6 12 - - - - - - - 17.9 1022.4 0.0
20/11:30am N 6 10 - - - - - - - 17.6 1023.0 0.0
20/11:00am N 6 12 - - - - - - - 17.3 1023.5 0.0
20/10:30am NNE 4 7 - - - - - - - 16.7 1023.9 0.0
20/10:00am NNW 1 2 - - - - - - - 14.8 1024.1 0.0
20/09:30am CALM 0 0 - - - - - - - 11.3 1024.5 0.0
20/09:00am CALM 0 0 - - - - - - - 8.3 1024.5 0.0
20/08:30am CALM 0 0 - - - - - - - 5.2 1024.3 0.0
20/08:00am CALM 0 0 - - - - - - - 1.9 1024.2 0.0
20/07:30am CALM 0 0 - - - - - - - 0.2 1024.0 0.0
20/07:00am CALM 0 0 - - - - - - - 0.1 1023.8 0.0
20/06:30am CALM 0 0 - - - - - - - 0.3 1023.9 0.0
20/06:00am CALM 0 0 - - - - - - - 0.5 1023.6 0.0
20/05:30am CALM 0 0 - - - - - - - 0.7 1023.4 0.0
20/05:00am CALM 0 0 - - - - - - - 0.8 1023.3 0.0
20/04:30am CALM 0 0 - - - - - - - 0.9 1022.9 0.0
20/04:00am CALM 0 0 - - - - - - - 1.3 1023.1 0.0
20/03:30am CALM 0 0 - - - - - - - 1.5 1023.1 0.0
20/03:00am CALM 0 0 - - - - - - - 1.6 1023.2 0.0
20/02:30am CALM 0 0 - - - - - - - 1.8 1023.4 0.0
20/02:00am CALM 0 0 - - - - - - - 2.1 1023.5 0.0
20/01:30am CALM 0 0 - - - - - - - 2.4 1023.7 0.0
20/01:00am CALM 0 0 - - - - - - - 2.5 1023.6 0.0
20/12:30am CALM 0 0 - - - - - - - 2.9 1023.6 0.0
20/12:00am CALM 0 0 - - - - - - - 3.1 1023.7 0.0
 
Date/Time
EST
Wind Sea
Height
m
Swell Vis
km
Cloud Weather Temp
°C
Press
hPa
Rain since
9am
mm
Dir  Spd
kts
Gust
kts
Height
m
Period
s
Dir
19/11:30pm CALM 0 0 - - - - - - - 3.6 1023.7 0.0
19/11:00pm CALM 0 0 - - - - - - - 3.7 1023.6 0.0
19/10:30pm CALM 0 0 - - - - - - - 4.3 1023.7 0.0
19/10:00pm CALM 0 0 - - - - - - - 4.5 1023.6 0.0
19/09:30pm CALM 0 0 - - - - - - - 5.0 1023.4 0.0
19/09:00pm CALM 0 0 - - - - - - - 5.3 1023.3 0.0
19/08:30pm CALM 0 0 - - - - - - - 5.8 1023.1 0.0
19/08:00pm CALM 0 0 - - - - - - - 6.3 1022.8 0.0
19/07:30pm CALM 0 0 - - - - - - - 7.0 1022.5 0.0
19/07:00pm CALM 0 0 - - - - - - - 7.9 1022.2 0.0
19/06:30pm CALM 0 0 - - - - - - - 8.7 1021.9 0.0
19/06:00pm CALM 0 0 - - - - - - - 9.9 1021.3 0.0
19/05:30pm CALM 0 0 - - - - - - - 11.2 1020.9 0.0
19/05:00pm CALM 0 2 - - - - - - - 13.6 1020.4 0.0
19/04:30pm CALM 0 0 - - - - - - - 16.0 1020.2 0.0
19/04:00pm CALM 0 1 - - - - - - - 17.9 1020.2 0.0
19/03:30pm SW 1 5 - - - - - - - 18.9 1020.0 0.0
19/03:00pm WNW 2 4 - - - - - - - 19.0 1019.7 0.0
19/02:30pm SW 2 5 - - - - - - - 18.8 1019.6 0.0
19/02:00pm WSW 3 6 - - - - - - - 18.6 1019.5 0.0
19/01:30pm WSW 4 7 - - - - - - - 18.3 1019.4 0.0
19/01:00pm SW 4 9 - - - - - - - 17.9 1019.5 0.0
19/12:30pm W 4 8 - - - - - - - 17.5 1019.7 0.0
19/12:00pm WSW 4 9 - - - - - - - 16.9 1020.1 0.0
19/11:30am WSW 5 9 - - - - - - - 16.3 1020.4 0.0
19/11:00am W 5 10 - - - - - - - 16.1 1020.8 0.0
19/10:30am NW 4 6 - - - - - - - 15.1 1020.9 0.0
19/10:00am NW 5 8 - - - - - - - 13.9 1021.0 0.0
19/09:30am NW 5 8 - - - - - - - 13.0 1021.0 0.0
19/09:00am NNW 3 7 - - - - - - - 12.2 1021.0 0.0
19/08:30am N 3 5 - - - - - - - 9.7 1020.6 0.0
19/08:22am N 3 5 - - - - - - - 7.6 1020.6 0.0
19/08:00am CALM 0 1 - - - - - - - 2.6 1020.8 0.0
19/07:30am WNW 1 1 - - - - - - - 0.3 1020.5 0.0
19/07:00am CALM 0 0 - - - - - - - 0.6 1020.6 0.0
19/06:30am CALM 0 0 - - - - - - - 0.9 1020.2 0.0
19/06:00am CALM 0 0 - - - - - - - 1.6 1019.6 0.0
19/05:30am WNW 1 2 - - - - - - - 2.2 1019.2 0.0
19/05:00am N 4 5 - - - - - - - 1.9 1019.0 0.0
19/04:30am CALM 0 0 - - - - - - - 3.1 1018.7 0.0
19/04:00am NNW 2 3 - - - - - - - 3.8 1018.4 0.0
19/03:30am NW 3 7 - - - - - - - 7.1 1018.3 0.0
19/03:00am WNW 3 7 - - - - - - - 6.4 1018.5 0.0
19/02:30am NNW 2 4 - - - - - - - 3.8 1018.6 0.0
19/02:00am NNW 2 4 - - - - - - - 4.9 1018.8 0.0
19/01:30am NNW 1 3 - - - - - - - 2.9 1018.5 0.0
19/01:00am NW 1 2 - - - - - - - 3.3 1018.5 0.0
19/12:30am CALM 0 0 - - - - - - - 3.3 1018.5 0.0
19/12:00am CALM 0 0 - - - - - - - 3.7 1018.6 0.0
 
Date/Time
EST
Wind Sea
Height
m
Swell Vis
km
Cloud Weather Temp
°C
Press
hPa
Rain since
9am
mm
Dir  Spd
kts
Gust
kts
Height
m
Period
s
Dir
18/11:30pm CALM 0 0 - - - - - - - 3.9 1018.7 0.0
18/11:00pm NNE 1 2 - - - - - - - 4.6 1018.8 0.0
18/10:30pm CALM 0 0 - - - - - - - 4.6 1018.9 0.0
18/10:00pm CALM 0 0 - - - - - - - 4.9 1018.8 0.0
18/09:30pm CALM 0 0 - - - - - - - 5.4 1018.6 0.0
18/09:00pm NNW 2 3 - - - - - - - 5.5 1018.5 0.0
18/08:30pm CALM 0 0 - - - - - - - 6.5 1018.1 0.0
18/08:00pm CALM 0 0 - - - - - - - 7.0 1017.7 0.0
18/07:30pm CALM 0 0 - - - - - - - 7.8 1017.6 0.0
18/07:00pm CALM 0 0 - - - - - - - 8.4 1017.2 0.0
18/06:30pm WSW 1 3 - - - - - - - 9.2 1016.7 0.0
18/06:00pm CALM 0 3 - - - - - - - 10.4 1016.4 0.0
18/05:30pm CALM 0 0 - - - - - - - 12.1 1016.0 0.0
18/05:00pm SE 1 3 - - - - - - - 14.4 1015.6 0.0
18/04:30pm CALM 0 0 - - - - - - - 16.4 1015.2 0.0
18/04:00pm CALM 0 2 - - - - - - - 20.1 1014.9 0.0
18/03:30pm SW 3 7 - - - - - - - 19.9 1014.8 0.0

Other formats

Comma delimited format used in spreadsheet applications
http://www.bom.gov.au/fwo/IDN60701/IDN60701.95767.axf

JavaScript Object Notation format (JSON) in row-major order
http://www.bom.gov.au/fwo/IDN60701/IDN60701.95767.json

Data quality

Most of these data are generated automatically and are frequently updated. Quality checks on data are not normally performed. It is possible for incorrect values to appear. Refer to information at About Latest Weather Observations and please check the disclaimer before using these data.